createdAt,value
2018-07-25T00:06:23.256Z,28.70
2018-07-25T00:08:54.724Z,28.60
2018-07-25T00:11:26.290Z,28.60
2018-07-25T00:13:57.856Z,28.60
2018-07-25T00:16:29.505Z,28.60
2018-07-25T00:19:01.134Z,28.60
2018-07-25T00:21:32.807Z,28.60
2018-07-25T00:24:04.713Z,28.10
2018-07-25T00:26:36.757Z,28.50
2018-07-25T00:29:08.657Z,28.50
2018-07-25T00:31:40.230Z,28.50
2018-07-25T00:34:11.666Z,28.50
2018-07-25T00:36:43.238Z,28.50
2018-07-25T00:39:14.838Z,28.40
2018-07-25T00:41:46.565Z,28.40
2018-07-25T00:44:18.016Z,28.40
2018-07-25T00:46:50.688Z,28.40
2018-07-25T00:49:22.248Z,28.30
2018-07-25T00:51:54.102Z,28.30
2018-07-25T00:54:25.545Z,28.30
2018-07-25T00:56:57.025Z,28.20
2018-07-25T00:59:28.589Z,28.20
2018-07-25T01:02:00.122Z,28.20
2018-07-25T01:04:31.481Z,28.20
2018-07-25T01:07:03.133Z,28.20
2018-07-25T01:09:34.609Z,28.10
2018-07-25T01:12:06.350Z,28.10
2018-07-25T01:14:37.901Z,28.10
2018-07-25T01:17:09.339Z,28.00
2018-07-25T01:19:41.616Z,28.00
2018-07-25T01:22:13.076Z,27.90
2018-07-25T01:24:44.577Z,27.90
2018-07-25T01:27:15.989Z,27.80
2018-07-25T01:29:47.511Z,27.80
2018-07-25T01:32:18.940Z,27.80
2018-07-25T01:34:50.820Z,27.70
2018-07-25T01:37:22.320Z,27.70
2018-07-25T01:39:54.313Z,27.60
2018-07-25T01:42:25.910Z,27.60
2018-07-25T01:44:57.457Z,27.60
2018-07-25T01:47:28.789Z,27.50
2018-07-25T01:52:31.565Z,27.50
2018-07-25T01:55:04.094Z,27.40
2018-07-25T01:57:35.613Z,27.40
2018-07-25T02:02:38.663Z,27.30
2018-07-25T02:05:10.121Z,27.30
2018-07-25T02:07:41.683Z,27.20
2018-07-25T02:10:13.152Z,27.20
2018-07-25T02:15:15.699Z,27.10
2018-07-25T02:17:47.745Z,27.00
2018-07-25T02:20:19.368Z,27.00
2018-07-25T02:22:50.742Z,27.00
2018-07-25T02:25:22.538Z,27.00
2018-07-25T02:27:54.225Z,26.90
2018-07-25T02:30:26.365Z,26.90
2018-07-25T02:32:57.812Z,26.80
2018-07-25T02:35:29.324Z,26.80
2018-07-25T02:38:00.970Z,26.80
2018-07-25T02:40:32.674Z,26.80
2018-07-25T02:43:04.336Z,26.70
2018-07-25T02:45:41.346Z,26.70
2018-07-25T02:48:13.209Z,26.70
2018-07-25T02:50:45.204Z,26.70
2018-07-25T02:53:16.699Z,26.60
2018-07-25T02:55:48.312Z,26.60
2018-07-25T02:58:19.696Z,26.60
2018-07-25T03:00:51.161Z,26.50
2018-07-25T03:03:23.189Z,26.50
2018-07-25T03:05:55.371Z,26.40
2018-07-25T03:08:26.954Z,26.40
2018-07-25T03:10:58.405Z,26.40
2018-07-25T03:13:30.100Z,26.40
2018-07-25T03:16:06.564Z,26.40
2018-07-25T03:18:38.594Z,26.30
2018-07-25T03:21:10.487Z,26.40
2018-07-25T03:23:42.146Z,26.30
2018-07-25T03:26:13.663Z,26.00
2018-07-25T03:28:45.113Z,26.20
2018-07-25T03:31:16.591Z,26.20
2018-07-25T03:33:48.308Z,26.20
2018-07-25T03:36:19.932Z,26.10
2018-07-25T03:38:51.376Z,26.20
2018-07-25T03:41:22.977Z,26.10
2018-07-25T03:43:54.410Z,26.10
2018-07-25T03:46:25.853Z,26.10
2018-07-25T03:48:57.310Z,26.00
2018-07-25T03:51:28.868Z,26.00
2018-07-25T03:54:00.622Z,26.00
2018-07-25T03:59:03.337Z,25.90
2018-07-25T04:01:35.232Z,25.90
2018-07-25T04:04:06.928Z,25.90
2018-07-25T04:06:38.745Z,25.90
2018-07-25T04:09:10.493Z,25.80
2018-07-25T04:11:42.193Z,25.80
2018-07-25T04:14:13.665Z,25.80
2018-07-25T04:16:45.797Z,25.80
2018-07-25T04:21:48.584Z,25.80
2018-07-25T04:24:20.449Z,25.80
2018-07-25T04:26:52.156Z,25.80
2018-07-25T04:29:23.640Z,25.80
2018-07-25T04:31:55.098Z,25.80
2018-07-25T04:34:26.666Z,25.70
2018-07-25T04:36:58.135Z,25.80
2018-07-25T04:39:29.573Z,25.70
2018-07-25T04:42:01.043Z,25.70
2018-07-25T04:44:32.597Z,25.80
2018-07-25T04:47:04.302Z,25.80
2018-07-25T04:49:35.947Z,25.80
2018-07-25T04:52:07.646Z,25.80
2018-07-25T04:54:39.241Z,25.80
2018-07-25T04:57:10.962Z,25.80
2018-07-25T04:59:43.319Z,25.90
2018-07-25T05:04:45.761Z,25.90
2018-07-25T05:09:48.186Z,25.90
2018-07-25T05:12:20.037Z,25.90
2018-07-25T05:14:54.495Z,25.90
2018-07-25T05:17:32.664Z,25.90
2018-07-25T05:20:04.500Z,26.00
2018-07-25T05:22:36.853Z,26.00
2018-07-25T05:25:08.741Z,26.00
2018-07-25T05:27:40.385Z,26.00
2018-07-25T05:30:12.227Z,26.00
2018-07-25T05:32:44.049Z,26.00
2018-07-25T05:35:15.637Z,26.10
2018-07-25T05:37:47.109Z,26.10
2018-07-25T05:40:18.703Z,26.10
2018-07-25T05:42:50.685Z,26.10
2018-07-25T05:45:22.235Z,26.20
2018-07-25T05:47:53.718Z,26.20
2018-07-25T05:50:25.553Z,26.30
2018-07-25T05:52:56.996Z,26.30
2018-07-25T05:55:30.142Z,26.30
2018-07-25T05:58:01.770Z,26.30
2018-07-25T06:00:33.614Z,26.40
2018-07-25T06:03:05.533Z,26.40
2018-07-25T06:05:37.562Z,26.50
2018-07-25T06:08:09.111Z,26.50
2018-07-25T06:10:41.098Z,26.60
2018-07-25T06:13:12.586Z,26.60
2018-07-25T06:15:44.370Z,26.70
2018-07-25T06:18:15.981Z,26.70
2018-07-25T06:20:47.511Z,26.80
2018-07-25T06:23:19.083Z,26.90
2018-07-25T06:25:50.810Z,26.90
2018-07-25T06:28:22.785Z,27.00
2018-07-25T06:30:54.659Z,27.00
2018-07-25T06:33:27.100Z,27.10
2018-07-25T06:35:58.575Z,27.10
2018-07-25T06:38:30.644Z,27.20
2018-07-25T06:41:02.163Z,27.20
2018-07-25T06:43:33.969Z,27.30
2018-07-25T06:46:06.000Z,27.40
2018-07-25T06:48:37.621Z,27.40
2018-07-25T06:51:09.759Z,27.50
2018-07-25T06:53:41.500Z,27.50
2018-07-25T06:56:13.726Z,27.60
2018-07-25T06:58:45.309Z,27.70
2018-07-25T07:01:17.104Z,27.60
2018-07-25T07:03:48.645Z,27.80
2018-07-25T07:06:20.111Z,27.80
2018-07-25T07:08:51.590Z,27.90
2018-07-25T07:11:23.393Z,27.90
2018-07-25T07:13:55.135Z,28.00
2018-07-25T07:16:26.806Z,28.10
2018-07-25T07:18:58.464Z,28.10
2018-07-25T07:21:30.180Z,28.20
2018-07-25T07:24:01.840Z,28.20
2018-07-25T07:26:34.498Z,28.30
2018-07-25T07:29:06.997Z,28.40
2018-07-25T07:31:38.439Z,28.50
2018-07-25T07:34:10.690Z,28.50
2018-07-25T07:36:43.104Z,28.60
2018-07-25T07:39:15.418Z,28.60
2018-07-25T07:41:47.830Z,28.80
2018-07-25T07:44:19.670Z,28.90
2018-07-25T07:46:52.026Z,28.90
2018-07-25T07:49:24.194Z,29.00
2018-07-25T07:51:56.442Z,29.00
2018-07-25T07:54:28.928Z,29.10
2018-07-25T07:57:01.312Z,29.20
2018-07-25T07:59:33.394Z,29.20
2018-07-25T08:02:05.497Z,29.30
2018-07-25T08:04:37.586Z,29.40
2018-07-25T08:07:10.177Z,29.50
2018-07-25T08:09:42.318Z,29.50
2018-07-25T08:12:14.509Z,29.60
2018-07-25T08:14:46.882Z,29.70
2018-07-25T08:17:18.985Z,29.80
2018-07-25T08:22:22.855Z,29.90
2018-07-25T08:24:55.033Z,30.00
2018-07-25T08:27:27.774Z,30.10
2018-07-25T08:29:59.923Z,30.20
2018-07-25T08:32:31.889Z,30.30
2018-07-25T08:35:04.093Z,30.30
2018-07-25T08:42:39.725Z,30.60
2018-07-25T08:45:12.402Z,30.70
2018-07-25T08:47:44.684Z,30.80
2018-07-25T08:50:17.165Z,30.90
2018-07-25T08:52:49.338Z,31.00
2018-07-25T08:55:21.483Z,31.10
2018-07-25T08:57:53.713Z,31.10
2018-07-25T09:00:26.205Z,31.30
2018-07-25T09:02:58.923Z,31.40
2018-07-25T09:05:31.734Z,31.50
2018-07-25T09:08:04.077Z,31.60
2018-07-25T09:10:36.183Z,31.70
2018-07-25T09:13:08.378Z,31.70
2018-07-25T09:15:40.628Z,31.80
2018-07-25T09:18:13.007Z,32.00
2018-07-25T09:20:45.172Z,32.10
2018-07-25T09:23:17.329Z,32.20
2018-07-25T09:25:49.409Z,32.30
2018-07-25T09:28:21.726Z,32.40
2018-07-25T09:33:25.609Z,32.70
2018-07-25T09:35:57.855Z,32.80
2018-07-25T09:38:29.902Z,33.00
2018-07-25T09:41:02.569Z,33.20
2018-07-25T09:43:34.802Z,33.30
2018-07-25T09:46:07.259Z,33.50
2018-07-25T09:48:39.490Z,33.70
2018-07-25T09:51:12.226Z,33.90
2018-07-25T09:56:16.422Z,34.20
2018-07-25T09:58:48.972Z,34.30
2018-07-25T10:01:21.129Z,34.40
2018-07-25T10:03:53.138Z,34.40
2018-07-25T10:06:25.492Z,34.50
2018-07-25T10:08:57.737Z,34.50
2018-07-25T10:11:30.103Z,34.50
2018-07-25T10:16:34.099Z,35.00
2018-07-25T10:19:06.268Z,34.60
2018-07-25T10:21:38.937Z,34.60
2018-07-25T10:24:11.361Z,34.60
2018-07-25T10:26:43.635Z,34.70
2018-07-25T10:29:16.042Z,34.70
2018-07-25T10:31:48.643Z,34.90
2018-07-25T10:34:21.110Z,34.90
2018-07-25T10:36:53.449Z,35.00
2018-07-25T10:39:25.903Z,35.10
2018-07-25T10:41:58.237Z,35.20
2018-07-25T10:44:30.568Z,35.40
2018-07-25T10:47:02.901Z,35.50
2018-07-25T10:49:35.207Z,35.80
2018-07-25T10:52:07.733Z,35.90
2018-07-25T10:54:40.191Z,36.20
2018-07-25T10:57:12.517Z,36.40
2018-07-25T10:59:44.785Z,36.60
2018-07-25T11:02:16.960Z,37.00
2018-07-25T11:04:49.105Z,37.30
2018-07-25T11:07:21.326Z,37.70
2018-07-25T11:09:53.929Z,38.20
2018-07-25T11:12:26.458Z,38.70
2018-07-25T11:14:58.520Z,39.20
2018-07-25T11:17:30.991Z,39.60
2018-07-25T11:20:03.537Z,40.10
2018-07-25T11:22:35.795Z,40.70
2018-07-25T11:25:08.039Z,41.10
2018-07-25T11:30:12.199Z,41.90
2018-07-25T11:32:44.094Z,42.20
2018-07-25T11:35:16.129Z,42.50
2018-07-25T11:37:47.936Z,42.80
2018-07-25T11:40:19.557Z,43.10
2018-07-25T11:42:51.340Z,43.40
2018-07-25T11:45:23.497Z,43.70
2018-07-25T11:47:55.270Z,43.90
2018-07-25T11:50:27.096Z,44.30
2018-07-25T11:52:59.233Z,44.60
2018-07-25T11:55:31.333Z,44.90
2018-07-25T12:00:34.541Z,45.50
2018-07-25T12:03:06.461Z,45.80
2018-07-25T12:05:38.577Z,46.00
2018-07-25T12:08:10.655Z,46.10
2018-07-25T12:10:42.686Z,46.20
2018-07-25T12:13:21.359Z,46.40
2018-07-25T12:15:53.898Z,46.60
2018-07-25T12:18:25.930Z,46.60
2018-07-25T12:20:57.704Z,46.80
2018-07-25T12:23:30.283Z,46.90
2018-07-25T12:26:02.243Z,46.90
2018-07-25T12:28:34.361Z,47.00
2018-07-25T12:31:06.705Z,47.20
2018-07-25T12:33:38.951Z,47.30
2018-07-25T12:36:10.911Z,47.50
2018-07-25T12:38:43.067Z,47.70
2018-07-25T12:41:14.990Z,47.90
2018-07-25T12:43:47.719Z,48.00
2018-07-25T12:46:19.652Z,48.00
2018-07-25T12:51:23.146Z,48.00
2018-07-25T12:53:55.308Z,48.20
2018-07-25T12:56:27.380Z,48.30
2018-07-25T12:58:59.428Z,48.40
2018-07-25T13:01:31.477Z,48.70
2018-07-25T13:04:03.692Z,48.50
2018-07-25T13:06:35.672Z,48.60
2018-07-25T13:09:11.170Z,48.70
2018-07-25T13:14:14.635Z,48.70
2018-07-25T13:16:47.133Z,48.70
2018-07-25T13:19:19.643Z,48.70
2018-07-25T13:21:51.722Z,48.70
2018-07-25T13:24:23.857Z,48.60
2018-07-25T13:26:56.576Z,48.30
2018-07-25T13:29:28.723Z,47.90
2018-07-25T13:32:00.720Z,47.40
2018-07-25T13:34:32.676Z,46.90
2018-07-25T13:37:04.816Z,46.40
2018-07-25T13:39:37.176Z,46.00
2018-07-25T13:42:09.730Z,45.70
2018-07-25T13:47:13.193Z,44.90
2018-07-25T13:49:45.446Z,44.60
2018-07-25T13:52:17.617Z,44.40
2018-07-25T13:54:49.594Z,44.20
2018-07-25T13:57:21.728Z,44.00
2018-07-25T13:59:54.250Z,43.80
2018-07-25T14:02:26.469Z,43.60
2018-07-25T14:04:58.906Z,43.30
2018-07-25T14:07:31.191Z,43.10
2018-07-25T14:10:04.031Z,42.90
2018-07-25T14:12:36.396Z,42.60
2018-07-25T14:15:08.839Z,42.40
2018-07-25T14:17:41.201Z,42.20
2018-07-25T14:20:13.499Z,41.90
2018-07-25T14:22:45.808Z,41.80
2018-07-25T14:25:18.214Z,41.50
2018-07-25T14:27:50.547Z,41.40
2018-07-25T14:30:22.776Z,41.30
2018-07-25T14:32:55.645Z,41.20
2018-07-25T14:35:28.017Z,41.10
2018-07-25T14:38:00.554Z,41.00
2018-07-25T14:40:32.702Z,40.60
2018-07-25T14:43:05.352Z,40.30
2018-07-25T14:45:38.162Z,40.00
2018-07-25T14:48:10.936Z,40.90
2018-07-25T14:53:15.692Z,38.90
2018-07-25T14:55:48.192Z,38.60
2018-07-25T14:58:20.561Z,38.30
2018-07-25T15:00:53.166Z,37.90
2018-07-25T15:03:25.682Z,37.50
2018-07-25T15:05:58.093Z,37.10
2018-07-25T15:08:30.461Z,36.60
2018-07-25T15:11:02.970Z,36.10
2018-07-25T15:13:35.640Z,35.50
2018-07-25T15:16:08.106Z,34.90
2018-07-25T15:18:40.578Z,34.30
2018-07-25T15:21:13.141Z,33.80
2018-07-25T15:26:26.612Z,32.90
2018-07-25T15:29:00.201Z,32.40
2018-07-25T15:34:06.767Z,31.70
2018-07-25T15:36:45.279Z,31.50
2018-07-25T15:39:20.262Z,31.20
2018-07-25T15:41:53.568Z,31.00
2018-07-25T15:44:27.009Z,29.40
2018-07-25T15:46:59.322Z,30.60
2018-07-25T15:49:31.163Z,30.40
2018-07-25T15:52:03.107Z,30.20
2018-07-25T15:54:35.388Z,30.10
2018-07-25T15:57:08.425Z,29.90
2018-07-25T16:02:11.662Z,29.70
2018-07-25T16:04:43.949Z,29.60
2018-07-25T16:07:15.784Z,29.50
2018-07-25T16:09:47.751Z,29.40
2018-07-25T16:12:19.589Z,29.30
2018-07-25T16:14:51.386Z,29.30
2018-07-25T16:17:23.587Z,29.20
2018-07-25T16:19:55.472Z,29.20
2018-07-25T16:22:27.536Z,29.10
2018-07-25T16:27:30.864Z,29.10
2018-07-25T16:30:02.626Z,29.10
2018-07-25T16:32:34.553Z,29.10
2018-07-25T16:35:07.216Z,29.00
2018-07-25T16:37:39.266Z,29.00
2018-07-25T16:40:11.181Z,29.00
2018-07-25T16:42:42.949Z,28.90
2018-07-25T16:47:46.338Z,28.90
2018-07-25T16:50:18.924Z,28.90
2018-07-25T16:52:50.957Z,29.00
2018-07-25T16:55:22.810Z,28.40
2018-07-25T16:57:55.271Z,28.90
2018-07-25T17:00:27.097Z,28.90
2018-07-25T17:05:30.930Z,28.90
2018-07-25T17:08:04.171Z,29.00
2018-07-25T17:10:35.953Z,28.90
2018-07-25T17:13:07.897Z,28.90
2018-07-25T17:15:40.569Z,28.90
2018-07-25T17:18:12.402Z,28.90
2018-07-25T17:20:44.103Z,29.00
2018-07-25T17:23:16.159Z,28.90
2018-07-25T17:25:48.589Z,28.90
2018-07-25T17:28:20.242Z,29.00
2018-07-25T17:30:52.105Z,29.00
2018-07-25T17:33:23.687Z,27.50
2018-07-25T17:35:55.434Z,29.00
2018-07-25T17:38:27.616Z,29.10
2018-07-25T17:40:59.622Z,29.10
2018-07-25T17:43:31.471Z,29.10
2018-07-25T17:46:03.447Z,29.10
2018-07-25T17:48:35.701Z,29.10
2018-07-25T17:51:07.936Z,29.10
2018-07-25T17:53:39.612Z,29.10
2018-07-25T17:56:12.251Z,29.10
2018-07-25T17:58:44.023Z,29.40
2018-07-25T18:01:15.822Z,29.10
2018-07-25T18:03:47.554Z,29.10
2018-07-25T18:06:19.488Z,29.10
2018-07-25T18:08:51.149Z,29.10
2018-07-25T18:14:00.959Z,29.10
2018-07-25T18:16:33.390Z,29.10
2018-07-25T18:19:05.322Z,29.10
2018-07-25T18:21:37.432Z,29.10
2018-07-25T18:26:41.840Z,29.00
2018-07-25T18:29:13.888Z,29.00
2018-07-25T18:31:45.655Z,29.00
2018-07-25T18:34:17.400Z,29.00
2018-07-25T18:36:49.834Z,29.00
2018-07-25T18:39:21.838Z,28.90
2018-07-25T18:41:53.507Z,28.90
2018-07-25T18:44:25.509Z,28.80
2018-07-25T18:46:57.561Z,29.40
2018-07-25T18:49:30.210Z,28.90
2018-07-25T18:54:34.036Z,28.90
2018-07-25T18:57:06.097Z,28.80
2018-07-25T18:59:37.706Z,28.80
2018-07-25T19:02:09.703Z,28.80
2018-07-25T19:04:41.315Z,28.80
2018-07-25T19:07:13.056Z,28.80
2018-07-25T19:09:45.510Z,28.80
2018-07-25T19:12:17.677Z,28.70
2018-07-25T19:14:54.821Z,28.80
2018-07-25T19:19:58.419Z,28.70
2018-07-25T19:22:30.461Z,28.70
2018-07-25T19:25:02.183Z,28.70
2018-07-25T19:27:34.304Z,28.70
2018-07-25T19:30:06.696Z,28.70
2018-07-25T19:32:38.644Z,28.70
2018-07-25T19:35:11.088Z,28.70
2018-07-25T19:37:43.490Z,28.60
2018-07-25T19:40:15.449Z,27.60
2018-07-25T19:42:47.596Z,28.60
2018-07-25T19:45:19.252Z,28.60
2018-07-25T19:47:51.095Z,28.60
2018-07-25T19:50:23.082Z,28.60
2018-07-25T19:52:55.652Z,28.50
2018-07-25T19:55:27.729Z,28.60
2018-07-25T19:57:59.482Z,28.50
2018-07-25T20:00:31.723Z,28.50
2018-07-25T20:03:03.780Z,28.40
2018-07-25T20:05:35.884Z,28.40
2018-07-25T20:10:39.106Z,28.40
2018-07-25T20:13:11.174Z,28.40
2018-07-25T20:15:48.503Z,28.30
2018-07-25T20:18:20.185Z,28.30
2018-07-25T20:20:51.819Z,28.20
2018-07-25T20:23:23.746Z,28.30
2018-07-25T20:25:55.790Z,28.30
2018-07-25T20:28:28.501Z,28.30
2018-07-25T20:31:00.438Z,28.30
2018-07-25T20:33:31.919Z,28.20
2018-07-25T20:36:03.963Z,28.20
2018-07-25T20:38:35.708Z,28.30
2018-07-25T20:41:07.571Z,28.30
2018-07-25T20:43:40.026Z,28.20
2018-07-25T20:46:12.231Z,28.20
2018-07-25T20:48:44.232Z,28.20
2018-07-25T20:51:16.572Z,28.20
2018-07-25T20:53:49.052Z,28.20
2018-07-25T20:56:22.134Z,28.20
2018-07-25T20:58:54.113Z,28.20
2018-07-25T21:01:25.946Z,28.10
2018-07-25T21:03:58.026Z,28.10
2018-07-25T21:06:30.277Z,28.10
2018-07-25T21:09:02.656Z,28.10
2018-07-25T21:11:34.273Z,28.10
2018-07-25T21:14:06.468Z,28.00
2018-07-25T21:16:38.054Z,28.00
2018-07-25T21:19:09.863Z,28.00
2018-07-25T21:21:41.744Z,27.90
2018-07-25T21:24:13.721Z,27.90
2018-07-25T21:26:45.579Z,27.90
2018-07-25T21:29:17.114Z,27.90
2018-07-25T21:34:19.913Z,27.90
2018-07-25T21:36:51.496Z,27.80
2018-07-25T21:39:23.137Z,27.80
2018-07-25T21:41:54.749Z,27.80
2018-07-25T21:44:27.196Z,27.80
2018-07-25T21:46:58.941Z,27.80
2018-07-25T21:49:30.895Z,27.80
2018-07-25T21:52:02.987Z,27.70
2018-07-25T21:57:06.429Z,27.70
2018-07-25T22:02:08.985Z,27.70
2018-07-25T22:04:40.548Z,27.60
2018-07-25T22:07:12.200Z,27.60
2018-07-25T22:09:43.770Z,27.60
2018-07-25T22:12:15.196Z,27.60
2018-07-25T22:14:46.669Z,27.60
2018-07-25T22:17:18.178Z,27.50
2018-07-25T22:19:49.792Z,27.50
2018-07-25T22:22:21.348Z,27.50
2018-07-25T22:24:52.902Z,27.40
2018-07-25T22:27:24.290Z,27.40
2018-07-25T22:29:55.853Z,27.40
2018-07-25T22:32:27.643Z,27.40
2018-07-25T22:34:59.116Z,27.40
2018-07-25T22:37:30.835Z,27.30
2018-07-25T22:40:02.890Z,27.30
2018-07-25T22:42:35.512Z,27.30
2018-07-25T22:47:38.405Z,27.30
2018-07-25T22:50:09.937Z,27.20
2018-07-25T22:52:41.489Z,27.20
2018-07-25T22:55:13.061Z,27.90
2018-07-25T22:57:45.032Z,27.10
2018-07-25T23:00:16.681Z,27.10
2018-07-25T23:02:48.392Z,27.00
2018-07-25T23:05:19.996Z,27.10
2018-07-25T23:07:51.681Z,27.00
2018-07-25T23:10:23.836Z,27.00
2018-07-25T23:12:55.712Z,27.00
2018-07-25T23:15:27.686Z,27.00
2018-07-25T23:17:59.233Z,27.00
2018-07-25T23:20:30.830Z,27.00
2018-07-25T23:23:02.494Z,27.00
2018-07-25T23:25:34.225Z,27.00
2018-07-25T23:28:05.850Z,26.90
2018-07-25T23:30:37.497Z,26.90
2018-07-25T23:33:09.213Z,26.90
2018-07-25T23:35:40.771Z,26.90
2018-07-25T23:38:12.444Z,26.90
2018-07-25T23:40:44.128Z,26.80
2018-07-25T23:43:16.661Z,26.80
2018-07-25T23:45:50.083Z,26.80
2018-07-25T23:48:22.110Z,26.80
2018-07-25T23:50:54.026Z,26.80
2018-07-25T23:53:25.789Z,26.70
2018-07-25T23:55:57.301Z,26.70
2018-07-25T23:58:28.847Z,26.70
